sensor_id;sensor_type;location;lat;lon;timestamp;temperature;humidity
51007;DHT22;37034;47.886;-3.904;2024-01-15T00:01:44;8.10;99.90
51007;DHT22;37034;47.886;-3.904;2024-01-15T00:04:10;7.90;99.90
51007;DHT22;37034;47.886;-3.904;2024-01-15T00:06:36;7.90;99.90
51007;DHT22;37034;47.886;-3.904;2024-01-15T00:09:02;7.80;99.90
51007;DHT22;37034;47.886;-3.904;2024-01-15T00:11:27;8.00;99.90
51007;DHT22;37034;47.886;-3.904;2024-01-15T00:13:53;8.00;99.90
51007;DHT22;37034;47.886;-3.904;2024-01-15T00:16:19;8.00;99.90
51007;DHT22;37034;47.886;-3.904;2024-01-15T00:18:44;8.00;99.90
51007;DHT22;37034;47.886;-3.904;2024-01-15T00:21:10;8.00;99.90
51007;DHT22;37034;47.886;-3.904;2024-01-15T00:23:36;7.90;99.90
51007;DHT22;37034;47.886;-3.904;2024-01-15T00:26:01;8.00;99.90
51007;DHT22;37034;47.886;-3.904;2024-01-15T00:28:27;8.00;99.90
51007;DHT22;37034;47.886;-3.904;2024-01-15T00:30:53;8.00;99.90
51007;DHT22;37034;47.886;-3.904;2024-01-15T00:33:18;8.10;99.90
51007;DHT22;37034;47.886;-3.904;2024-01-15T00:35:44;8.10;99.90
51007;DHT22;37034;47.886;-3.904;2024-01-15T00:38:10;8.10;99.90
51007;DHT22;37034;47.886;-3.904;2024-01-15T00:40:35;8.10;99.90
51007;DHT22;37034;47.886;-3.904;2024-01-15T00:43:01;8.10;99.90
51007;DHT22;37034;47.886;-3.904;2024-01-15T00:45:27;8.20;99.90
51007;DHT22;37034;47.886;-3.904;2024-01-15T00:47:53;8.20;99.90
51007;DHT22;37034;47.886;-3.904;2024-01-15T00:50:21;8.10;99.90
51007;DHT22;37034;47.886;-3.904;2024-01-15T00:52:47;8.10;99.90
51007;DHT22;37034;47.886;-3.904;2024-01-15T00:55:13;8.10;99.90
51007;DHT22;37034;47.886;-3.904;2024-01-15T00:57:39;8.10;99.90
51007;DHT22;37034;47.886;-3.904;2024-01-15T01:00:05;8.10;99.90
51007;DHT22;37034;47.886;-3.904;2024-01-15T01:02:31;8.10;99.90
51007;DHT22;37034;47.886;-3.904;2024-01-15T01:04:57;8.00;99.90
51007;DHT22;37034;47.886;-3.904;2024-01-15T01:07:23;8.00;99.90
51007;DHT22;37034;47.886;-3.904;2024-01-15T01:09:48;8.00;99.90
51007;DHT22;37034;47.886;-3.904;2024-01-15T01:12:14;8.10;99.90
51007;DHT22;37034;47.886;-3.904;2024-01-15T01:14:40;8.00;99.90
51007;DHT22;37034;47.886;-3.904;2024-01-15T01:17:06;7.90;99.90
51007;DHT22;37034;47.886;-3.904;2024-01-15T01:19:31;7.90;99.90
51007;DHT22;37034;47.886;-3.904;2024-01-15T01:21:57;7.90;99.90
51007;DHT22;37034;47.886;-3.904;2024-01-15T01:24:22;8.00;99.90
51007;DHT22;37034;47.886;-3.904;2024-01-15T01:26:48;8.00;99.90
51007;DHT22;37034;47.886;-3.904;2024-01-15T01:29:14;8.00;99.90
51007;DHT22;37034;47.886;-3.904;2024-01-15T01:31:44;8.00;99.90
51007;DHT22;37034;47.886;-3.904;2024-01-15T01:34:10;8.00;99.90
51007;DHT22;37034;47.886;-3.904;2024-01-15T01:36:36;7.90;99.90
51007;DHT22;37034;47.886;-3.904;2024-01-15T01:39:02;7.90;99.90
51007;DHT22;37034;47.886;-3.904;2024-01-15T01:41:27;7.90;99.90
51007;DHT22;37034;47.886;-3.904;2024-01-15T01:43:53;7.80;99.90
51007;DHT22;37034;47.886;-3.904;2024-01-15T01:46:19;7.80;99.90
51007;DHT22;37034;47.886;-3.904;2024-01-15T01:48:44;7.70;99.90
51007;DHT22;37034;47.886;-3.904;2024-01-15T01:51:11;7.70;99.90
51007;DHT22;37034;47.886;-3.904;2024-01-15T01:53:38;7.70;99.90
51007;DHT22;37034;47.886;-3.904;2024-01-15T01:56:04;7.70;99.90
51007;DHT22;37034;47.886;-3.904;2024-01-15T01:58:31;7.80;99.90
51007;DHT22;37034;47.886;-3.904;2024-01-15T02:00:58;7.90;99.90
51007;DHT22;37034;47.886;-3.904;2024-01-15T02:03:25;7.90;99.90
51007;DHT22;37034;47.886;-3.904;2024-01-15T02:05:52;7.90;99.90
51007;DHT22;37034;47.886;-3.904;2024-01-15T02:08:18;7.80;99.90
51007;DHT22;37034;47.886;-3.904;2024-01-15T02:10:44;7.80;99.90
51007;DHT22;37034;47.886;-3.904;2024-01-15T02:13:09;7.90;99.90
51007;DHT22;37034;47.886;-3.904;2024-01-15T02:15:35;8.00;99.90
51007;DHT22;37034;47.886;-3.904;2024-01-15T02:20:28;8.00;99.90
51007;DHT22;37034;47.886;-3.904;2024-01-15T02:22:54;7.90;99.90
51007;DHT22;37034;47.886;-3.904;2024-01-15T02:25:20;7.90;99.90
51007;DHT22;37034;47.886;-3.904;2024-01-15T02:27:46;7.80;99.90
51007;DHT22;37034;47.886;-3.904;2024-01-15T02:30:12;7.80;99.90
51007;DHT22;37034;47.886;-3.904;2024-01-15T02:32:38;7.70;99.90
51007;DHT22;37034;47.886;-3.904;2024-01-15T02:35:04;7.70;99.90
51007;DHT22;37034;47.886;-3.904;2024-01-15T02:37:30;7.70;99.90
51007;DHT22;37034;47.886;-3.904;2024-01-15T02:39:56;7.70;99.90
51007;DHT22;37034;47.886;-3.904;2024-01-15T02:42:21;7.70;99.90
51007;DHT22;37034;47.886;-3.904;2024-01-15T02:44:47;7.80;99.90
51007;DHT22;37034;47.886;-3.904;2024-01-15T02:47:14;7.80;99.90
51007;DHT22;37034;47.886;-3.904;2024-01-15T02:49:39;7.80;99.90
51007;DHT22;37034;47.886;-3.904;2024-01-15T02:52:05;7.80;99.90
51007;DHT22;37034;47.886;-3.904;2024-01-15T02:54:30;7.90;99.90
51007;DHT22;37034;47.886;-3.904;2024-01-15T02:56:56;7.90;99.90
51007;DHT22;37034;47.886;-3.904;2024-01-15T02:59:21;7.90;99.90
51007;DHT22;37034;47.886;-3.904;2024-01-15T03:01:47;7.80;99.90
51007;DHT22;37034;47.886;-3.904;2024-01-15T03:04:12;7.80;99.90
51007;DHT22;37034;47.886;-3.904;2024-01-15T03:06:38;7.90;99.90
51007;DHT22;37034;47.886;-3.904;2024-01-15T03:09:03;8.00;99.90
51007;DHT22;37034;47.886;-3.904;2024-01-15T03:11:29;8.10;99.90
51007;DHT22;37034;47.886;-3.904;2024-01-15T03:13:54;8.10;99.90
51007;DHT22;37034;47.886;-3.904;2024-01-15T03:16:20;8.10;99.90
51007;DHT22;37034;47.886;-3.904;2024-01-15T03:18:46;8.00;99.90
51007;DHT22;37034;47.886;-3.904;2024-01-15T03:21:11;8.00;99.90
51007;DHT22;37034;47.886;-3.904;2024-01-15T03:23:37;8.00;99.90
51007;DHT22;37034;47.886;-3.904;2024-01-15T03:26:02;8.00;99.90
51007;DHT22;37034;47.886;-3.904;2024-01-15T03:28:28;7.90;99.90
51007;DHT22;37034;47.886;-3.904;2024-01-15T03:30:55;7.90;99.90
51007;DHT22;37034;47.886;-3.904;2024-01-15T03:33:21;8.00;99.90
51007;DHT22;37034;47.886;-3.904;2024-01-15T03:35:46;8.00;99.90
51007;DHT22;37034;47.886;-3.904;2024-01-15T03:38:12;7.80;99.90
51007;DHT22;37034;47.886;-3.904;2024-01-15T03:40:37;7.90;99.90
51007;DHT22;37034;47.886;-3.904;2024-01-15T03:43:03;7.80;99.90
51007;DHT22;37034;47.886;-3.904;2024-01-15T03:45:28;7.80;99.90
51007;DHT22;37034;47.886;-3.904;2024-01-15T03:47:55;7.90;99.90
51007;DHT22;37034;47.886;-3.904;2024-01-15T03:50:20;7.90;99.90
51007;DHT22;37034;47.886;-3.904;2024-01-15T03:52:46;7.80;99.90
51007;DHT22;37034;47.886;-3.904;2024-01-15T03:55:11;7.90;99.90
51007;DHT22;37034;47.886;-3.904;2024-01-15T03:57:37;7.90;99.90
51007;DHT22;37034;47.886;-3.904;2024-01-15T04:00:03;7.90;99.90
51007;DHT22;37034;47.886;-3.904;2024-01-15T04:02:28;7.90;99.90
51007;DHT22;37034;47.886;-3.904;2024-01-15T04:04:54;8.00;99.90
51007;DHT22;37034;47.886;-3.904;2024-01-15T04:07:19;8.10;99.90
51007;DHT22;37034;47.886;-3.904;2024-01-15T04:09:45;8.10;99.90
51007;DHT22;37034;47.886;-3.904;2024-01-15T04:12:10;8.10;99.90
51007;DHT22;37034;47.886;-3.904;2024-01-15T04:14:36;8.10;99.90
51007;DHT22;37034;47.886;-3.904;2024-01-15T04:17:01;8.20;99.90
51007;DHT22;37034;47.886;-3.904;2024-01-15T04:19:27;8.20;99.90
51007;DHT22;37034;47.886;-3.904;2024-01-15T04:21:52;8.20;99.90
51007;DHT22;37034;47.886;-3.904;2024-01-15T04:24:18;8.20;99.90
51007;DHT22;37034;47.886;-3.904;2024-01-15T04:26:44;8.10;99.90
51007;DHT22;37034;47.886;-3.904;2024-01-15T04:29:09;8.20;99.90
51007;DHT22;37034;47.886;-3.904;2024-01-15T04:31:35;8.20;99.90
51007;DHT22;37034;47.886;-3.904;2024-01-15T04:34:00;8.20;99.90
51007;DHT22;37034;47.886;-3.904;2024-01-15T04:36:26;8.20;99.90
51007;DHT22;37034;47.886;-3.904;2024-01-15T04:38:51;8.20;99.90
51007;DHT22;37034;47.886;-3.904;2024-01-15T04:41:17;8.10;99.90
51007;DHT22;37034;47.886;-3.904;2024-01-15T04:43:42;8.10;99.90
51007;DHT22;37034;47.886;-3.904;2024-01-15T04:46:08;8.10;99.90
51007;DHT22;37034;47.886;-3.904;2024-01-15T04:48:33;8.00;99.90
51007;DHT22;37034;47.886;-3.904;2024-01-15T04:50:59;7.90;99.90
51007;DHT22;37034;47.886;-3.904;2024-01-15T04:53:25;7.90;99.90
51007;DHT22;37034;47.886;-3.904;2024-01-15T04:55:51;7.90;99.90
51007;DHT22;37034;47.886;-3.904;2024-01-15T04:58:16;7.90;99.90
51007;DHT22;37034;47.886;-3.904;2024-01-15T05:00:42;7.90;99.90
51007;DHT22;37034;47.886;-3.904;2024-01-15T05:03:07;8.00;99.90
51007;DHT22;37034;47.886;-3.904;2024-01-15T05:05:33;8.10;99.90
51007;DHT22;37034;47.886;-3.904;2024-01-15T05:07:58;8.10;99.90
51007;DHT22;37034;47.886;-3.904;2024-01-15T05:10:24;8.10;99.90
51007;DHT22;37034;47.886;-3.904;2024-01-15T05:12:49;8.00;99.90
51007;DHT22;37034;47.886;-3.904;2024-01-15T05:15:15;7.90;99.90
51007;DHT22;37034;47.886;-3.904;2024-01-15T05:17:40;7.90;99.90
51007;DHT22;37034;47.886;-3.904;2024-01-15T05:20:06;8.00;99.90
51007;DHT22;37034;47.886;-3.904;2024-01-15T05:22:32;8.00;99.90
51007;DHT22;37034;47.886;-3.904;2024-01-15T05:24:58;8.10;99.90
51007;DHT22;37034;47.886;-3.904;2024-01-15T05:27:23;8.00;99.90
51007;DHT22;37034;47.886;-3.904;2024-01-15T05:29:49;8.00;99.90
51007;DHT22;37034;47.886;-3.904;2024-01-15T05:32:14;8.00;99.90
51007;DHT22;37034;47.886;-3.904;2024-01-15T05:34:40;8.00;99.90
51007;DHT22;37034;47.886;-3.904;2024-01-15T05:37:05;8.00;99.90
51007;DHT22;37034;47.886;-3.904;2024-01-15T05:39:31;8.00;99.90
51007;DHT22;37034;47.886;-3.904;2024-01-15T05:41:57;8.10;99.90
51007;DHT22;37034;47.886;-3.904;2024-01-15T05:44:23;8.20;99.90
51007;DHT22;37034;47.886;-3.904;2024-01-15T05:46:48;8.30;99.90
51007;DHT22;37034;47.886;-3.904;2024-01-15T05:49:14;8.30;99.90
51007;DHT22;37034;47.886;-3.904;2024-01-15T05:51:39;8.40;99.90
51007;DHT22;37034;47.886;-3.904;2024-01-15T05:54:05;8.40;99.90
51007;DHT22;37034;47.886;-3.904;2024-01-15T05:56:31;8.40;99.90
51007;DHT22;37034;47.886;-3.904;2024-01-15T05:58:56;8.40;99.90
51007;DHT22;37034;47.886;-3.904;2024-01-15T06:01:22;8.50;99.90
51007;DHT22;37034;47.886;-3.904;2024-01-15T06:03:47;8.50;99.90
51007;DHT22;37034;47.886;-3.904;2024-01-15T06:06:13;8.50;99.90
51007;DHT22;37034;47.886;-3.904;2024-01-15T06:08:38;8.50;99.90
51007;DHT22;37034;47.886;-3.904;2024-01-15T06:11:04;8.60;99.90
51007;DHT22;37034;47.886;-3.904;2024-01-15T06:13:30;8.60;99.90
51007;DHT22;37034;47.886;-3.904;2024-01-15T06:15:56;8.60;99.90
51007;DHT22;37034;47.886;-3.904;2024-01-15T06:18:21;8.60;99.90
51007;DHT22;37034;47.886;-3.904;2024-01-15T06:20:47;8.60;99.90
51007;DHT22;37034;47.886;-3.904;2024-01-15T06:23:12;8.70;99.90
51007;DHT22;37034;47.886;-3.904;2024-01-15T06:25:38;8.70;99.90
51007;DHT22;37034;47.886;-3.904;2024-01-15T06:28:03;8.70;99.90
51007;DHT22;37034;47.886;-3.904;2024-01-15T06:30:30;8.70;99.90
51007;DHT22;37034;47.886;-3.904;2024-01-15T06:32:55;8.70;99.90
51007;DHT22;37034;47.886;-3.904;2024-01-15T06:35:21;8.60;99.90
51007;DHT22;37034;47.886;-3.904;2024-01-15T06:37:46;8.70;99.90
51007;DHT22;37034;47.886;-3.904;2024-01-15T06:40:12;8.60;99.90
51007;DHT22;37034;47.886;-3.904;2024-01-15T06:42:37;8.60;99.90
51007;DHT22;37034;47.886;-3.904;2024-01-15T06:45:03;8.60;99.90
51007;DHT22;37034;47.886;-3.904;2024-01-15T06:47:29;8.70;99.90
51007;DHT22;37034;47.886;-3.904;2024-01-15T06:49:54;8.70;99.90
51007;DHT22;37034;47.886;-3.904;2024-01-15T06:52:20;8.70;99.90
51007;DHT22;37034;47.886;-3.904;2024-01-15T06:54:45;8.70;99.90
51007;DHT22;37034;47.886;-3.904;2024-01-15T06:57:11;8.70;99.90
51007;DHT22;37034;47.886;-3.904;2024-01-15T06:59:36;8.70;99.90
51007;DHT22;37034;47.886;-3.904;2024-01-15T07:02:02;8.70;99.90
51007;DHT22;37034;47.886;-3.904;2024-01-15T07:04:28;8.70;99.90
51007;DHT22;37034;47.886;-3.904;2024-01-15T07:06:53;8.70;99.90
51007;DHT22;37034;47.886;-3.904;2024-01-15T07:09:19;8.80;99.90
51007;DHT22;37034;47.886;-3.904;2024-01-15T07:11:45;8.80;99.90
51007;DHT22;37034;47.886;-3.904;2024-01-15T07:14:11;8.80;99.90
51007;DHT22;37034;47.886;-3.904;2024-01-15T07:16:37;8.80;99.90
51007;DHT22;37034;47.886;-3.904;2024-01-15T07:19:03;8.70;99.90
51007;DHT22;37034;47.886;-3.904;2024-01-15T07:21:28;8.80;99.90
51007;DHT22;37034;47.886;-3.904;2024-01-15T07:23:53;8.70;99.90
51007;DHT22;37034;47.886;-3.904;2024-01-15T07:26:19;8.70;99.90
51007;DHT22;37034;47.886;-3.904;2024-01-15T07:28:44;8.80;99.90
51007;DHT22;37034;47.886;-3.904;2024-01-15T07:31:10;8.80;99.90
51007;DHT22;37034;47.886;-3.904;2024-01-15T07:33:36;8.80;99.90
51007;DHT22;37034;47.886;-3.904;2024-01-15T07:36:01;8.80;99.90
51007;DHT22;37034;47.886;-3.904;2024-01-15T07:38:28;8.80;99.90
51007;DHT22;37034;47.886;-3.904;2024-01-15T07:40:53;8.80;99.90
51007;DHT22;37034;47.886;-3.904;2024-01-15T07:43:19;8.80;99.90
51007;DHT22;37034;47.886;-3.904;2024-01-15T07:45:44;8.80;99.90
51007;DHT22;37034;47.886;-3.904;2024-01-15T07:48:10;8.80;99.90
51007;DHT22;37034;47.886;-3.904;2024-01-15T07:50:36;8.80;99.90
51007;DHT22;37034;47.886;-3.904;2024-01-15T07:53:01;8.80;99.90
51007;DHT22;37034;47.886;-3.904;2024-01-15T07:55:27;8.80;99.90
51007;DHT22;37034;47.886;-3.904;2024-01-15T07:57:52;8.80;99.90
51007;DHT22;37034;47.886;-3.904;2024-01-15T08:00:19;8.80;99.90
51007;DHT22;37034;47.886;-3.904;2024-01-15T08:02:44;8.80;99.90
51007;DHT22;37034;47.886;-3.904;2024-01-15T08:05:10;8.80;99.90
51007;DHT22;37034;47.886;-3.904;2024-01-15T08:07:35;8.80;99.90
51007;DHT22;37034;47.886;-3.904;2024-01-15T08:10:01;8.80;99.90
51007;DHT22;37034;47.886;-3.904;2024-01-15T08:12:26;8.80;99.90
51007;DHT22;37034;47.886;-3.904;2024-01-15T08:14:52;8.90;99.90
51007;DHT22;37034;47.886;-3.904;2024-01-15T08:17:17;8.90;99.90
51007;DHT22;37034;47.886;-3.904;2024-01-15T08:19:43;8.80;99.90
51007;DHT22;37034;47.886;-3.904;2024-01-15T08:22:09;8.80;99.90
51007;DHT22;37034;47.886;-3.904;2024-01-15T08:24:35;8.80;99.90
51007;DHT22;37034;47.886;-3.904;2024-01-15T08:27:00;8.90;99.90
51007;DHT22;37034;47.886;-3.904;2024-01-15T08:29:26;8.80;99.90
51007;DHT22;37034;47.886;-3.904;2024-01-15T08:31:51;8.90;99.90
51007;DHT22;37034;47.886;-3.904;2024-01-15T08:34:17;8.90;99.90
51007;DHT22;37034;47.886;-3.904;2024-01-15T08:36:42;8.90;99.90
51007;DHT22;37034;47.886;-3.904;2024-01-15T08:39:08;8.90;99.90
51007;DHT22;37034;47.886;-3.904;2024-01-15T08:41:34;8.90;99.90
51007;DHT22;37034;47.886;-3.904;2024-01-15T08:44:00;8.90;99.90
51007;DHT22;37034;47.886;-3.904;2024-01-15T08:46:25;8.90;99.90
51007;DHT22;37034;47.886;-3.904;2024-01-15T08:48:51;8.90;99.90
51007;DHT22;37034;47.886;-3.904;2024-01-15T08:51:16;8.90;99.90
51007;DHT22;37034;47.886;-3.904;2024-01-15T08:53:45;8.90;99.90
51007;DHT22;37034;47.886;-3.904;2024-01-15T08:56:13;9.00;99.90
51007;DHT22;37034;47.886;-3.904;2024-01-15T08:58:38;8.90;99.90
51007;DHT22;37034;47.886;-3.904;2024-01-15T09:01:03;8.90;99.90
51007;DHT22;37034;47.886;-3.904;2024-01-15T09:03:29;9.00;99.90
51007;DHT22;37034;47.886;-3.904;2024-01-15T09:05:55;8.90;99.90
51007;DHT22;37034;47.886;-3.904;2024-01-15T09:08:20;8.80;99.90
51007;DHT22;37034;47.886;-3.904;2024-01-15T09:10:46;8.80;99.90
51007;DHT22;37034;47.886;-3.904;2024-01-15T09:13:11;8.80;99.90
51007;DHT22;37034;47.886;-3.904;2024-01-15T09:15:37;8.60;99.90
51007;DHT22;37034;47.886;-3.904;2024-01-15T09:18:02;8.60;99.90
51007;DHT22;37034;47.886;-3.904;2024-01-15T09:20:28;8.60;99.90
51007;DHT22;37034;47.886;-3.904;2024-01-15T09:22:54;8.70;99.90
51007;DHT22;37034;47.886;-3.904;2024-01-15T09:25:19;8.70;99.90
51007;DHT22;37034;47.886;-3.904;2024-01-15T09:27:45;8.70;99.90
51007;DHT22;37034;47.886;-3.904;2024-01-15T09:30:10;8.80;99.90
51007;DHT22;37034;47.886;-3.904;2024-01-15T09:32:36;8.80;99.90
51007;DHT22;37034;47.886;-3.904;2024-01-15T09:35:02;8.70;99.90
51007;DHT22;37034;47.886;-3.904;2024-01-15T09:37:27;8.70;99.90
51007;DHT22;37034;47.886;-3.904;2024-01-15T09:39:53;8.70;99.90
51007;DHT22;37034;47.886;-3.904;2024-01-15T09:42:21;8.60;99.90
51007;DHT22;37034;47.886;-3.904;2024-01-15T09:44:48;8.50;99.90
51007;DHT22;37034;47.886;-3.904;2024-01-15T09:47:13;8.40;99.90
51007;DHT22;37034;47.886;-3.904;2024-01-15T09:49:41;8.30;99.90
51007;DHT22;37034;47.886;-3.904;2024-01-15T09:52:07;8.20;99.90
51007;DHT22;37034;47.886;-3.904;2024-01-15T09:54:33;8.20;99.90
51007;DHT22;37034;47.886;-3.904;2024-01-15T09:56:59;8.10;99.90
51007;DHT22;37034;47.886;-3.904;2024-01-15T09:59:25;8.10;99.90
51007;DHT22;37034;47.886;-3.904;2024-01-15T10:01:51;8.20;99.90
51007;DHT22;37034;47.886;-3.904;2024-01-15T10:04:18;8.30;99.90
51007;DHT22;37034;47.886;-3.904;2024-01-15T10:06:44;8.20;99.90
51007;DHT22;37034;47.886;-3.904;2024-01-15T10:09:12;8.10;99.90
51007;DHT22;37034;47.886;-3.904;2024-01-15T10:11:41;8.10;99.90
51007;DHT22;37034;47.886;-3.904;2024-01-15T10:14:06;8.20;99.90
51007;DHT22;37034;47.886;-3.904;2024-01-15T10:16:32;8.30;99.90
51007;DHT22;37034;47.886;-3.904;2024-01-15T10:18:58;8.30;99.90
51007;DHT22;37034;47.886;-3.904;2024-01-15T10:21:24;8.40;99.90
51007;DHT22;37034;47.886;-3.904;2024-01-15T10:23:51;8.40;99.90
51007;DHT22;37034;47.886;-3.904;2024-01-15T10:26:17;8.30;99.90
51007;DHT22;37034;47.886;-3.904;2024-01-15T10:28:42;8.30;99.90
51007;DHT22;37034;47.886;-3.904;2024-01-15T10:31:08;8.30;99.90
51007;DHT22;37034;47.886;-3.904;2024-01-15T10:33:35;8.30;99.90
51007;DHT22;37034;47.886;-3.904;2024-01-15T10:36:00;8.20;99.90
51007;DHT22;37034;47.886;-3.904;2024-01-15T10:38:26;8.40;99.90
51007;DHT22;37034;47.886;-3.904;2024-01-15T10:40:52;8.40;99.90
51007;DHT22;37034;47.886;-3.904;2024-01-15T10:43:18;8.50;99.90
51007;DHT22;37034;47.886;-3.904;2024-01-15T10:45:46;8.40;99.90
51007;DHT22;37034;47.886;-3.904;2024-01-15T10:48:12;8.40;99.90
51007;DHT22;37034;47.886;-3.904;2024-01-15T10:50:38;8.40;99.90
51007;DHT22;37034;47.886;-3.904;2024-01-15T10:53:04;8.30;99.90
51007;DHT22;37034;47.886;-3.904;2024-01-15T10:55:30;8.50;99.90
51007;DHT22;37034;47.886;-3.904;2024-01-15T10:57:56;8.40;99.90
51007;DHT22;37034;47.886;-3.904;2024-01-15T11:00:22;8.50;99.90
51007;DHT22;37034;47.886;-3.904;2024-01-15T11:02:48;8.40;99.90
51007;DHT22;37034;47.886;-3.904;2024-01-15T11:05:13;8.50;99.90
51007;DHT22;37034;47.886;-3.904;2024-01-15T11:07:39;8.50;99.90
51007;DHT22;37034;47.886;-3.904;2024-01-15T11:10:05;8.60;99.90
51007;DHT22;37034;47.886;-3.904;2024-01-15T11:12:31;8.70;99.90
51007;DHT22;37034;47.886;-3.904;2024-01-15T11:15:03;8.70;99.90
51007;DHT22;37034;47.886;-3.904;2024-01-15T11:18:19;8.60;99.90
51007;DHT22;37034;47.886;-3.904;2024-01-15T11:20:20;8.50;99.90
51007;DHT22;37034;47.886;-3.904;2024-01-15T11:25:14;8.30;99.90
51007;DHT22;37034;47.886;-3.904;2024-01-15T11:27:46;8.40;99.90
51007;DHT22;37034;47.886;-3.904;2024-01-15T11:30:18;8.70;99.90
51007;DHT22;37034;47.886;-3.904;2024-01-15T11:32:45;9.00;99.90
51007;DHT22;37034;47.886;-3.904;2024-01-15T11:35:12;9.10;99.00
51007;DHT22;37034;47.886;-3.904;2024-01-15T11:42:45;8.80;99.90
51007;DHT22;37034;47.886;-3.904;2024-01-15T11:45:11;8.80;99.80
51007;DHT22;37034;47.886;-3.904;2024-01-15T11:50:08;8.70;99.90
51007;DHT22;37034;47.886;-3.904;2024-01-15T11:52:34;8.80;98.80
51007;DHT22;37034;47.886;-3.904;2024-01-15T11:57:37;8.90;98.90
51007;DHT22;37034;47.886;-3.904;2024-01-15T12:00:05;9.10;99.70
51007;DHT22;37034;47.886;-3.904;2024-01-15T12:02:32;9.20;99.20
51007;DHT22;37034;47.886;-3.904;2024-01-15T12:04:57;9.10;98.40
51007;DHT22;37034;47.886;-3.904;2024-01-15T12:07:23;9.20;99.30
51007;DHT22;37034;47.886;-3.904;2024-01-15T12:09:48;9.20;98.80
51007;DHT22;37034;47.886;-3.904;2024-01-15T12:12:17;9.20;98.00
51007;DHT22;37034;47.886;-3.904;2024-01-15T12:14:44;9.10;98.70
51007;DHT22;37034;47.886;-3.904;2024-01-15T12:17:10;9.10;98.10
51007;DHT22;37034;47.886;-3.904;2024-01-15T12:19:36;8.90;97.90
51007;DHT22;37034;47.886;-3.904;2024-01-15T12:22:02;8.90;98.70
51007;DHT22;37034;47.886;-3.904;2024-01-15T12:24:28;8.90;98.60
51007;DHT22;37034;47.886;-3.904;2024-01-15T12:26:53;9.00;98.70
51007;DHT22;37034;47.886;-3.904;2024-01-15T12:29:18;9.20;99.10
51007;DHT22;37034;47.886;-3.904;2024-01-15T12:31:46;9.40;99.00
51007;DHT22;37034;47.886;-3.904;2024-01-15T12:34:12;9.40;98.20
51007;DHT22;37034;47.886;-3.904;2024-01-15T12:36:37;9.40;98.00
51007;DHT22;37034;47.886;-3.904;2024-01-15T12:39:05;9.40;97.90
51007;DHT22;37034;47.886;-3.904;2024-01-15T12:41:30;9.30;97.60
51007;DHT22;37034;47.886;-3.904;2024-01-15T12:43:56;9.20;97.80
51007;DHT22;37034;47.886;-3.904;2024-01-15T12:46:21;9.40;98.60
51007;DHT22;37034;47.886;-3.904;2024-01-15T12:48:48;9.50;98.30
51007;DHT22;37034;47.886;-3.904;2024-01-15T12:51:14;9.60;97.90
51007;DHT22;37034;47.886;-3.904;2024-01-15T12:53:40;9.50;97.30
51007;DHT22;37034;47.886;-3.904;2024-01-15T12:56:06;9.40;97.30
51007;DHT22;37034;47.886;-3.904;2024-01-15T12:58:31;9.50;98.10
51007;DHT22;37034;47.886;-3.904;2024-01-15T13:00:57;9.60;97.70
51007;DHT22;37034;47.886;-3.904;2024-01-15T13:03:23;9.60;96.60
51007;DHT22;37034;47.886;-3.904;2024-01-15T13:05:49;9.60;97.70
51007;DHT22;37034;47.886;-3.904;2024-01-15T13:08:15;9.50;97.40
51007;DHT22;37034;47.886;-3.904;2024-01-15T13:10:40;9.40;96.30
51007;DHT22;37034;47.886;-3.904;2024-01-15T13:13:07;9.30;96.80
51007;DHT22;37034;47.886;-3.904;2024-01-15T13:15:33;9.40;97.40
51007;DHT22;37034;47.886;-3.904;2024-01-15T13:17:58;9.60;97.50
51007;DHT22;37034;47.886;-3.904;2024-01-15T13:20:24;9.70;97.40
51007;DHT22;37034;47.886;-3.904;2024-01-15T13:22:49;9.90;96.70
51007;DHT22;37034;47.886;-3.904;2024-01-15T13:25:15;9.80;96.40
51007;DHT22;37034;47.886;-3.904;2024-01-15T13:27:41;9.80;96.40
51007;DHT22;37034;47.886;-3.904;2024-01-15T13:30:06;9.80;96.20
51007;DHT22;37034;47.886;-3.904;2024-01-15T13:32:33;9.70;96.20
51007;DHT22;37034;47.886;-3.904;2024-01-15T13:34:59;9.60;96.00
51007;DHT22;37034;47.886;-3.904;2024-01-15T13:37:25;9.80;96.80
51007;DHT22;37034;47.886;-3.904;2024-01-15T13:39:50;9.90;96.70
51007;DHT22;37034;47.886;-3.904;2024-01-15T13:42:19;9.90;95.70
51007;DHT22;37034;47.886;-3.904;2024-01-15T13:44:47;9.80;96.10
51007;DHT22;37034;47.886;-3.904;2024-01-15T13:47:12;9.80;95.80
51007;DHT22;37034;47.886;-3.904;2024-01-15T13:49:38;9.70;96.20
51007;DHT22;37034;47.886;-3.904;2024-01-15T13:52:04;9.80;96.30
51007;DHT22;37034;47.886;-3.904;2024-01-15T13:54:30;9.90;95.70
51007;DHT22;37034;47.886;-3.904;2024-01-15T13:56:55;9.70;95.40
51007;DHT22;37034;47.886;-3.904;2024-01-15T13:59:21;9.70;95.30
51007;DHT22;37034;47.886;-3.904;2024-01-15T14:01:47;9.60;95.50
51007;DHT22;37034;47.886;-3.904;2024-01-15T14:04:12;9.60;96.10
51007;DHT22;37034;47.886;-3.904;2024-01-15T14:06:38;9.70;96.00
51007;DHT22;37034;47.886;-3.904;2024-01-15T14:09:04;9.90;95.40
51007;DHT22;37034;47.886;-3.904;2024-01-15T14:11:30;9.90;95.30
51007;DHT22;37034;47.886;-3.904;2024-01-15T14:13:55;9.80;95.10
51007;DHT22;37034;47.886;-3.904;2024-01-15T14:16:21;9.80;95.50
51007;DHT22;37034;47.886;-3.904;2024-01-15T14:18:46;9.80;95.90
51007;DHT22;37034;47.886;-3.904;2024-01-15T14:21:12;9.80;95.40
51007;DHT22;37034;47.886;-3.904;2024-01-15T14:23:37;9.70;95.80
51007;DHT22;37034;47.886;-3.904;2024-01-15T14:26:03;9.80;95.80
51007;DHT22;37034;47.886;-3.904;2024-01-15T14:28:31;9.90;95.60
51007;DHT22;37034;47.886;-3.904;2024-01-15T14:30:56;10.10;95.80
51007;DHT22;37034;47.886;-3.904;2024-01-15T14:33:24;10.20;95.70
51007;DHT22;37034;47.886;-3.904;2024-01-15T14:35:50;10.30;95.40
51007;DHT22;37034;47.886;-3.904;2024-01-15T14:38:16;10.30;95.30
51007;DHT22;37034;47.886;-3.904;2024-01-15T14:40:41;10.40;95.20
51007;DHT22;37034;47.886;-3.904;2024-01-15T14:43:07;10.30;95.20
51007;DHT22;37034;47.886;-3.904;2024-01-15T14:45:33;10.30;95.20
51007;DHT22;37034;47.886;-3.904;2024-01-15T14:47:59;10.40;95.90
51007;DHT22;37034;47.886;-3.904;2024-01-15T14:50:24;10.50;95.70
51007;DHT22;37034;47.886;-3.904;2024-01-15T14:52:50;10.70;95.90
51007;DHT22;37034;47.886;-3.904;2024-01-15T14:55:16;10.80;95.60
51007;DHT22;37034;47.886;-3.904;2024-01-15T14:57:41;10.80;95.60
51007;DHT22;37034;47.886;-3.904;2024-01-15T15:00:07;10.90;96.00
51007;DHT22;37034;47.886;-3.904;2024-01-15T15:02:33;11.00;95.50
51007;DHT22;37034;47.886;-3.904;2024-01-15T15:05:00;11.10;94.90
51007;DHT22;37034;47.886;-3.904;2024-01-15T15:07:26;11.10;95.20
51007;DHT22;37034;47.886;-3.904;2024-01-15T15:09:51;10.90;94.70
51007;DHT22;37034;47.886;-3.904;2024-01-15T15:12:17;10.60;95.00
51007;DHT22;37034;47.886;-3.904;2024-01-15T15:14:43;10.60;95.60
51007;DHT22;37034;47.886;-3.904;2024-01-15T15:17:08;10.60;95.90
51007;DHT22;37034;47.886;-3.904;2024-01-15T15:19:35;10.60;96.00
51007;DHT22;37034;47.886;-3.904;2024-01-15T15:22:01;10.50;95.60
51007;DHT22;37034;47.886;-3.904;2024-01-15T15:24:26;10.30;96.00
51007;DHT22;37034;47.886;-3.904;2024-01-15T15:26:52;10.20;96.20
51007;DHT22;37034;47.886;-3.904;2024-01-15T15:29:18;10.10;95.70
51007;DHT22;37034;47.886;-3.904;2024-01-15T15:31:44;9.90;96.00
51007;DHT22;37034;47.886;-3.904;2024-01-15T15:34:09;9.70;96.10
51007;DHT22;37034;47.886;-3.904;2024-01-15T15:36:35;9.90;95.90